Time;durP1;ratioP1;P1;durP2;ratioP2;P2;SDS_P1;SDS_P2;PMS_P1;PMS_P2;Temp;Humidity;BMP_temperature;BMP_pressure;BME280_temperature;BME280_humidity;BME280_pressure;Samples;Min_cycle;Max_cycle;Signal;HPM_P1;HPM_P2
2021/12/14 00:00:23;;;;;;;15.37;9.70;;;9.40;99.90;;;;;;5048939;28;20287;-79
2021/12/14 00:02:51;;;;;;;16.00;9.40;;;9.40;99.90;;;;;;5031217;28;20207;-79
2021/12/14 00:05:22;;;;;;;14.33;8.97;;;9.40;99.90;;;;;;5048187;28;20214;-79
2021/12/14 00:07:49;;;;;;;17.20;10.17;;;9.40;99.90;;;;;;5050451;28;20303;-80
2021/12/14 00:13:17;;;;;;;16.63;9.30;;;9.40;99.90;;;;;;5070257;28;20197;-79
2021/12/14 00:15:44;;;;;;;16.23;10.03;;;9.40;99.90;;;;;;5072183;28;20234;-79
2021/12/14 00:18:13;;;;;;;18.37;10.83;;;9.40;99.90;;;;;;5072022;28;20230;-79
2021/12/14 00:20:45;;;;;;;20.23;10.77;;;9.30;99.90;;;;;;5072263;28;20350;-79
2021/12/14 00:25:52;;;;;;;17.03;11.57;;;9.30;99.90;;;;;;5072801;28;20224;-78
2021/12/14 00:28:22;;;;;;;17.63;11.63;;;9.30;99.90;;;;;;5072722;28;20227;-80
2021/12/14 00:30:51;;;;;;;20.47;12.27;;;9.30;99.90;;;;;;5054258;28;20652;-79
2021/12/14 00:33:21;;;;;;;18.67;11.13;;;9.20;99.90;;;;;;5034376;28;20235;-79
2021/12/14 00:35:48;;;;;;;26.60;12.70;;;9.30;99.90;;;;;;5071740;28;20238;-79
2021/12/14 00:38:21;;;;;;;20.73;13.00;;;9.20;99.90;;;;;;5054185;28;20674;-79
2021/12/14 00:40:54;;;;;;;21.53;13.10;;;9.20;99.90;;;;;;5071829;28;20208;-79
2021/12/14 00:43:22;;;;;;;21.87;13.10;;;9.20;99.90;;;;;;5070961;28;20299;-79
2021/12/14 00:45:49;;;;;;;21.10;12.90;;;9.20;99.90;;;;;;5071680;28;20578;-80
2021/12/14 00:48:18;;;;;;;23.80;14.10;;;9.20;99.90;;;;;;5071798;28;20294;-79
2021/12/14 00:50:51;;;;;;;22.80;14.47;;;9.20;99.90;;;;;;5065968;28;20291;-80
2021/12/14 00:53:18;;;;;;;24.67;13.83;;;9.20;99.90;;;;;;5036956;28;20280;-80
2021/12/14 00:55:48;;;;;;;25.43;15.30;;;9.20;99.90;;;;;;5070387;28;20244;-78
2021/12/14 00:58:18;;;;;;;26.07;14.43;;;9.20;99.90;;;;;;5053884;28;20240;-80
2021/12/14 01:00:49;;;;;;;23.83;14.57;;;9.20;99.90;;;;;;5072233;28;20532;-79
2021/12/14 01:03:17;;;;;;;25.67;15.03;;;9.20;99.90;;;;;;5063629;28;20741;-79
2021/12/14 01:05:47;;;;;;;26.20;14.87;;;9.30;99.90;;;;;;5051342;28;20230;-80
2021/12/14 01:08:18;;;;;;;30.87;15.90;;;9.20;99.90;;;;;;5052501;28;20239;-78
2021/12/14 01:10:47;;;;;;;30.10;16.60;;;9.10;99.90;;;;;;5076345;28;20204;-81
2021/12/14 01:13:16;;;;;;;26.93;16.00;;;9.20;99.90;;;;;;5072140;28;20263;-79
2021/12/14 01:16:02;;;;;;;31.43;15.93;;;9.20;99.90;;;;;;5071750;28;20224;-80
2021/12/14 01:21:56;;;;;;;26.80;15.00;;;9.20;99.90;;;;;;5087186;28;20240;-78
2021/12/14 01:24:35;;;;;;;27.63;15.17;;;9.20;99.90;;;;;;5088817;28;20217;-79
2021/12/14 01:27:13;;;;;;;29.97;16.07;;;9.20;99.90;;;;;;5092820;28;20196;-79
2021/12/14 01:29:44;;;;;;;28.17;15.90;;;9.20;99.90;;;;;;5092349;28;20208;-78
2021/12/14 01:32:12;;;;;;;32.57;18.17;;;9.20;99.90;;;;;;5075021;28;20208;-79
2021/12/14 01:34:39;;;;;;;31.73;16.60;;;9.20;99.90;;;;;;5070512;28;20236;-79
2021/12/14 01:37:14;;;;;;;30.60;16.90;;;9.20;99.90;;;;;;5045584;28;20246;-80
2021/12/14 01:39:50;;;;;;;32.63;16.53;;;9.20;99.90;;;;;;5053537;28;20203;-79
2021/12/14 01:42:25;;;;;;;31.30;17.00;;;9.20;99.90;;;;;;5060795;28;20203;-78
2021/12/14 01:45:03;;;;;;;34.83;18.20;;;9.20;99.90;;;;;;5066430;28;20278;-80
2021/12/14 01:47:35;;;;;;;32.97;16.90;;;9.20;99.90;;;;;;5070583;28;20261;-80
2021/12/14 01:50:06;;;;;;;30.83;16.67;;;9.20;99.90;;;;;;5065729;28;20213;-79
2021/12/14 01:52:35;;;;;;;31.53;17.97;;;9.20;99.90;;;;;;5070112;28;20397;-80
2021/12/14 01:55:11;;;;;;;34.10;17.77;;;9.20;99.90;;;;;;5070401;28;20223;-79
2021/12/14 01:57:38;;;;;;;32.93;18.50;;;9.20;99.90;;;;;;5060599;28;20662;-80
2021/12/14 02:00:09;;;;;;;33.50;18.87;;;9.20;99.90;;;;;;5069590;28;20200;-79
2021/12/14 02:02:42;;;;;;;33.20;17.70;;;9.10;99.90;;;;;;5069637;28;20208;-79
2021/12/14 02:05:26;;;;;;;31.23;17.97;;;9.10;99.90;;;;;;5070177;28;20197;-79
2021/12/14 02:07:55;;;;;;;32.07;16.93;;;9.20;99.90;;;;;;5069651;28;20244;-79
2021/12/14 02:10:27;;;;;;;36.80;19.60;;;9.10;99.90;;;;;;5064877;28;20595;-79
2021/12/14 02:12:54;;;;;;;34.87;18.93;;;9.10;99.90;;;;;;5034152;28;20201;-78
2021/12/14 02:15:26;;;;;;;29.00;17.03;;;9.10;99.90;;;;;;5050265;28;20216;-78
2021/12/14 02:17:57;;;;;;;37.07;19.33;;;9.10;99.90;;;;;;5059168;28;20236;-79
2021/12/14 02:20:31;;;;;;;35.27;18.43;;;9.20;99.90;;;;;;5049878;28;20222;-80
2021/12/14 02:22:59;;;;;;;34.77;18.60;;;9.20;99.90;;;;;;5066035;28;20303;-79
2021/12/14 02:25:27;;;;;;;30.57;17.63;;;9.20;99.90;;;;;;5064315;28;20279;-80
2021/12/14 02:27:55;;;;;;;34.13;18.70;;;9.20;99.90;;;;;;5064598;28;20691;-79
2021/12/14 02:30:29;;;;;;;35.20;18.53;;;9.20;99.90;;;;;;5062273;28;20311;-79
2021/12/14 02:32:58;;;;;;;33.53;18.27;;;9.20;99.90;;;;;;5049259;28;20221;-79
2021/12/14 02:35:27;;;;;;;33.77;19.17;;;9.10;99.90;;;;;;5056171;28;20203;-79
2021/12/14 02:38:05;;;;;;;36.33;17.43;;;9.20;99.90;;;;;;5069205;28;20232;-80
2021/12/14 02:41:12;;;;;;;34.07;18.97;;;9.20;99.90;;;;;;5054300;28;20656;-80
2021/12/14 02:43:51;;;;;;;32.00;18.30;;;9.20;99.90;;;;;;5046733;28;20231;-79
2021/12/14 02:46:28;;;;;;;33.40;18.43;;;9.10;99.90;;;;;;5031178;28;20200;-79
2021/12/14 02:48:59;;;;;;;36.07;18.70;;;9.10;99.90;;;;;;5051118;28;20251;-80
2021/12/14 02:51:34;;;;;;;38.17;18.43;;;9.10;99.90;;;;;;5051019;28;20286;-79
2021/12/14 02:54:08;;;;;;;33.73;19.57;;;9.00;99.90;;;;;;5068772;28;20663;-79
2021/12/14 02:56:38;;;;;;;33.10;18.63;;;9.00;99.90;;;;;;5068650;28;20325;-79
2021/12/14 02:59:12;;;;;;;38.10;19.57;;;9.10;99.90;;;;;;5070044;28;20295;-79
2021/12/14 03:01:42;;;;;;;37.60;20.13;;;9.10;99.90;;;;;;5069652;28;20215;-79
2021/12/14 03:04:10;;;;;;;38.23;20.83;;;9.10;99.90;;;;;;5062224;28;20230;-79
2021/12/14 03:06:47;;;;;;;39.50;21.10;;;9.00;99.90;;;;;;5051700;28;20635;-80
2021/12/14 03:09:53;;;;;;;42.40;21.47;;;9.00;99.90;;;;;;5031200;28;20209;-78
2021/12/14 03:12:33;;;;;;;40.93;20.80;;;9.10;99.90;;;;;;5064231;28;20626;-80
2021/12/14 03:15:14;;;;;;;39.63;20.50;;;9.00;99.90;;;;;;5057484;28;20239;-79
2021/12/14 03:17:43;;;;;;;35.77;19.43;;;9.10;99.90;;;;;;5049407;28;20246;-80
2021/12/14 03:20:22;;;;;;;44.00;21.43;;;9.20;99.90;;;;;;5059299;28;20259;-78
2021/12/14 03:22:58;;;;;;;43.43;21.97;;;9.10;99.90;;;;;;5066552;28;20295;-80
2021/12/14 03:25:24;;;;;;;45.10;22.70;;;9.10;99.90;;;;;;5069670;28;20285;-80
2021/12/14 03:27:52;;;;;;;40.90;22.40;;;9.00;99.90;;;;;;5051587;28;20301;-81
2021/12/14 03:30:25;;;;;;;45.13;22.33;;;9.00;99.90;;;;;;5060541;28;20193;-79
2021/12/14 03:32:59;;;;;;;48.27;24.53;;;9.00;99.90;;;;;;5059051;28;20227;-81
2021/12/14 03:35:40;;;;;;;45.93;24.17;;;9.00;99.90;;;;;;5062427;28;20286;-79
2021/12/14 03:38:16;;;;;;;45.47;23.10;;;9.00;99.90;;;;;;5056109;28;20318;-79
2021/12/14 03:40:43;;;;;;;48.57;23.40;;;9.10;99.90;;;;;;5069473;28;20280;-80
2021/12/14 03:43:13;;;;;;;46.90;24.40;;;9.10;99.90;;;;;;5067828;28;20235;-79
2021/12/14 03:45:40;;;;;;;45.57;24.00;;;9.10;99.90;;;;;;5051556;28;20204;-78
2021/12/14 03:48:07;;;;;;;45.87;23.57;;;9.10;99.90;;;;;;5052677;28;20221;-78
2021/12/14 03:50:41;;;;;;;42.83;23.27;;;9.10;99.90;;;;;;5063573;28;20230;-79
2021/12/14 03:53:10;;;;;;;47.37;24.20;;;9.20;99.90;;;;;;5057380;28;20197;-79
2021/12/14 03:55:45;;;;;;;45.30;23.77;;;9.10;99.90;;;;;;5073861;28;20322;-80
2021/12/14 03:58:17;;;;;;;51.77;26.30;;;9.10;99.90;;;;;;5069930;28;20273;-79
2021/12/14 04:00:52;;;;;;;47.73;24.60;;;9.00;99.90;;;;;;5054728;28;20201;-80
2021/12/14 04:03:22;;;;;;;44.93;23.70;;;9.10;99.90;;;;;;5070964;28;20240;-80
2021/12/14 04:05:50;;;;;;;52.63;25.93;;;9.10;99.90;;;;;;5075406;28;20275;-79
2021/12/14 04:08:19;;;;;;;52.63;26.17;;;9.00;99.90;;;;;;5056991;28;20254;-78
2021/12/14 04:10:48;;;;;;;51.70;25.53;;;9.00;99.90;;;;;;5066200;28;20318;-79
2021/12/14 04:13:18;;;;;;;52.37;25.77;;;9.00;99.90;;;;;;5064058;28;20247;-79
2021/12/14 04:15:45;;;;;;;55.00;26.83;;;9.00;99.90;;;;;;5071727;28;20589;-78
2021/12/14 04:18:12;;;;;;;57.47;26.40;;;9.00;99.90;;;;;;5054427;28;20275;-80
2021/12/14 04:20:43;;;;;;;54.10;26.00;;;9.00;99.90;;;;;;5071991;28;20203;-80
2021/12/14 04:23:16;;;;;;;56.00;26.27;;;9.00;99.90;;;;;;5053990;28;20634;-79
2021/12/14 04:25:44;;;;;;;58.77;27.03;;;9.00;99.90;;;;;;5071969;28;20213;-80
2021/12/14 04:28:15;;;;;;;52.53;26.17;;;9.00;99.90;;;;;;5075255;28;20227;-79
2021/12/14 04:30:42;;;;;;;58.13;27.67;;;9.00;99.90;;;;;;5063143;28;20314;-79
2021/12/14 04:33:13;;;;;;;55.20;26.27;;;9.00;99.90;;;;;;5085551;28;20223;-79
2021/12/14 04:35:42;;;;;;;56.87;26.03;;;9.10;99.90;;;;;;5088089;28;20211;-79
2021/12/14 04:38:22;;;;;;;62.67;29.00;;;9.00;99.90;;;;;;5081764;28;20231;-78
2021/12/14 04:52:22;;;;;;;65.40;28.80;;;9.00;99.90;;;;;;5081060;28;20693;-79
2021/12/14 04:54:53;;;;;;;55.63;27.83;;;9.00;99.90;;;;;;5093702;28;20243;-79
2021/12/14 04:57:33;;;;;;;60.83;27.27;;;9.00;99.90;;;;;;5092038;28;20251;-79
2021/12/14 05:00:24;;;;;;;55.97;26.67;;;9.00;99.90;;;;;;5094883;28;20203;-79
2021/12/14 05:02:53;;;;;;;60.43;28.67;;;9.00;99.90;;;;;;5092941;28;20222;-79
2021/12/14 05:05:39;;;;;;;59.27;27.60;;;8.90;99.90;;;;;;5089446;28;20184;-79
2021/12/14 05:10:43;;;;;;;56.93;27.53;;;8.90;99.90;;;;;;5073907;28;20306;-78
2021/12/14 05:13:10;;;;;;;59.23;27.47;;;8.80;99.90;;;;;;5063925;28;20193;-79
2021/12/14 05:15:39;;;;;;;63.67;28.63;;;8.80;99.90;;;;;;5060956;28;20298;-78
2021/12/14 05:18:11;;;;;;;57.97;27.93;;;8.90;99.90;;;;;;5082472;28;20688;-79
2021/12/14 05:20:46;;;;;;;58.23;26.73;;;8.90;99.90;;;;;;5072233;28;20227;-79
2021/12/14 05:23:28;;;;;;;63.97;27.60;;;8.90;99.90;;;;;;5088674;28;20204;-78
2021/12/14 05:25:56;;;;;;;56.97;27.17;;;8.90;99.90;;;;;;5075734;28;20283;-78
2021/12/14 05:28:24;;;;;;;58.23;27.00;;;8.90;99.90;;;;;;5092703;28;20215;-79
2021/12/14 05:30:54;;;;;;;60.10;27.30;;;8.90;99.90;;;;;;5092206;28;20294;-79
2021/12/14 05:33:25;;;;;;;56.10;27.63;;;8.90;99.90;;;;;;5089053;28;20199;-79
2021/12/14 05:35:54;;;;;;;56.57;25.63;;;8.90;99.90;;;;;;5061492;28;20218;-78
2021/12/14 05:38:40;;;;;;;61.90;28.17;;;8.90;99.90;;;;;;5072960;28;20247;-80
2021/12/14 05:43:05;;;;;;;59.33;28.00;;;8.90;99.90;;;;;;5074737;28;20223;-79
2021/12/14 05:43:56;;;;;;;52.83;25.57;;;8.90;99.90;;;;;;5087312;28;20286;-79
2021/12/14 05:46:23;;;;;;;53.40;25.33;;;8.90;99.90;;;;;;5079265;28;20212;-80
2021/12/14 05:49:01;;;;;;;60.10;28.33;;;8.90;99.90;;;;;;5076263;28;20311;-80
2021/12/14 05:51:30;;;;;;;55.50;26.37;;;8.80;99.90;;;;;;5078453;28;20225;-78
2021/12/14 05:53:58;;;;;;;54.40;25.57;;;8.80;99.90;;;;;;5074669;28;20215;-78
2021/12/14 05:56:27;;;;;;;54.47;26.20;;;8.80;99.90;;;;;;5071316;28;20607;-79
2021/12/14 05:58:58;;;;;;;55.60;25.23;;;8.80;99.90;;;;;;5049236;28;20259;-78
2021/12/14 06:01:30;;;;;;;55.97;26.77;;;8.80;99.90;;;;;;5072573;28;20755;-79
2021/12/14 06:04:01;;;;;;;50.27;24.37;;;8.90;99.90;;;;;;5070231;28;20272;-79
2021/12/14 06:06:34;;;;;;;54.97;25.53;;;8.90;99.90;;;;;;5072065;28;20463;-79
2021/12/14 06:09:09;;;;;;;55.30;25.47;;;8.80;99.90;;;;;;5051189;28;20299;-80
2021/12/14 06:11:37;;;;;;;52.73;25.20;;;8.90;99.90;;;;;;5053556;28;20196;-79
2021/12/14 06:14:17;;;;;;;51.63;25.60;;;8.90;99.90;;;;;;5063539;28;20200;-77
2021/12/14 06:16:45;;;;;;;54.57;26.67;;;8.90;99.90;;;;;;5074242;28;20209;-79
2021/12/14 06:19:23;;;;;;;53.87;26.83;;;8.90;99.90;;;;;;5071141;28;20227;-78
2021/12/14 06:21:56;;;;;;;53.23;24.93;;;8.90;99.90;;;;;;5073374;28;20275;-79
2021/12/14 06:24:26;;;;;;;53.63;26.23;;;8.80;99.90;;;;;;5072227;28;20311;-79
2021/12/14 06:26:58;;;;;;;50.43;25.80;;;8.90;99.90;;;;;;5070986;28;20211;-79
2021/12/14 06:29:29;;;;;;;57.30;27.00;;;8.90;99.90;;;;;;5051977;28;20207;-78
2021/12/14 06:32:04;;;;;;;51.80;26.03;;;8.90;99.90;;;;;;5039870;28;20749;-78
2021/12/14 06:34:31;;;;;;;54.60;25.50;;;8.90;99.90;;;;;;5061166;28;20207;-80
2021/12/14 06:40:12;;;;;;;53.67;25.33;;;8.90;99.90;;;;;;5013114;28;20611;-80
2021/12/14 06:42:52;;;;;;;58.07;25.73;;;8.90;99.90;;;;;;5057586;28;20214;-79
2021/12/14 06:45:23;;;;;;;55.53;25.93;;;8.90;99.90;;;;;;5050750;28;20712;-78
2021/12/14 06:47:53;;;;;;;60.10;27.37;;;8.90;99.90;;;;;;5067864;28;20222;-79
2021/12/14 06:50:26;;;;;;;54.50;24.90;;;8.80;99.90;;;;;;5070681;28;20231;-79
2021/12/14 06:52:59;;;;;;;55.23;25.90;;;8.90;99.90;;;;;;5070444;28;20203;-79
2021/12/14 06:55:32;;;;;;;54.17;26.03;;;8.90;99.90;;;;;;5066823;28;20232;-76
2021/12/14 06:58:28;;;;;;;54.90;26.73;;;8.90;99.90;;;;;;5057632;28;20220;-78
2021/12/14 07:01:09;;;;;;;57.27;26.40;;;8.90;99.90;;;;;;5066780;28;20220;-79
2021/12/14 07:03:53;;;;;;;56.40;27.97;;;8.90;99.90;;;;;;5065222;28;20246;-78
2021/12/14 07:06:26;;;;;;;53.80;26.70;;;8.90;99.90;;;;;;5069000;28;20302;-79
2021/12/14 07:08:56;;;;;;;57.20;27.33;;;8.90;99.90;;;;;;5069392;28;20200;-80
2021/12/14 07:11:24;;;;;;;52.63;25.60;;;8.90;99.90;;;;;;5069555;28;20205;-79
2021/12/14 07:13:53;;;;;;;55.90;27.87;;;8.80;99.90;;;;;;5068819;28;20203;-79
2021/12/14 07:16:30;;;;;;;57.23;28.30;;;8.90;99.90;;;;;;5050230;28;20267;-78
2021/12/14 07:19:00;;;;;;;52.70;27.60;;;8.90;99.90;;;;;;5053729;28;20238;-79
2021/12/14 07:21:46;;;;;;;53.40;26.23;;;8.90;99.90;;;;;;5075767;28;20230;-80
2021/12/14 07:24:36;;;;;;;52.90;26.87;;;8.90;99.90;;;;;;5076613;28;20326;-78
2021/12/14 07:27:17;;;;;;;54.40;27.00;;;8.90;99.90;;;;;;5072965;28;20262;-78
2021/12/14 07:29:44;;;;;;;55.00;27.83;;;8.80;99.90;;;;;;5073562;28;20303;-79
2021/12/14 07:32:11;;;;;;;51.43;26.70;;;8.80;99.90;;;;;;5073691;28;20313;-79
2021/12/14 07:34:38;;;;;;;52.90;26.37;;;8.80;99.90;;;;;;5074462;28;20231;-79
2021/12/14 07:37:05;;;;;;;51.63;25.77;;;8.90;99.90;;;;;;5074132;28;20212;-80
2021/12/14 07:39:32;;;;;;;53.70;27.30;;;8.90;99.90;;;;;;5055258;28;20230;-78
2021/12/14 07:42:00;;;;;;;52.53;25.47;;;8.90;99.90;;;;;;5073505;28;20196;-80
2021/12/14 07:44:33;;;;;;;54.33;26.93;;;8.90;99.90;;;;;;5055942;28;20849;-79
2021/12/14 07:47:14;;;;;;;55.90;27.60;;;8.90;99.90;;;;;;5073565;28;20290;-79
2021/12/14 07:49:45;;;;;;;53.20;25.43;;;8.90;99.90;;;;;;5066799;28;20219;-78
2021/12/14 07:52:18;;;;;;;47.63;24.00;;;8.80;99.90;;;;;;5052558;28;20287;-78
2021/12/14 07:54:48;;;;;;;52.97;25.97;;;8.80;99.90;;;;;;5054370;28;20288;-78
2021/12/14 07:57:28;;;;;;;55.03;26.73;;;8.80;99.90;;;;;;5070961;28;20230;-79
2021/12/14 08:00:04;;;;;;;53.27;25.93;;;8.80;99.90;;;;;;5073265;28;20255;-78
2021/12/14 08:02:38;;;;;;;49.47;24.30;;;8.80;99.90;;;;;;5084579;28;20256;-78
2021/12/14 08:05:23;;;;;;;54.10;25.97;;;8.80;99.90;;;;;;5092800;28;20651;-79
2021/12/14 08:08:15;;;;;;;51.90;24.67;;;8.90;99.90;;;;;;5093294;28;20569;-77
2021/12/14 08:11:09;;;;;;;54.13;26.00;;;8.90;99.90;;;;;;5076144;28;20206;-78
2021/12/14 08:13:47;;;;;;;54.20;26.27;;;8.80;99.90;;;;;;5092316;28;20206;-79
2021/12/14 08:16:14;;;;;;;53.67;24.93;;;8.80;99.90;;;;;;5090944;28;20263;-78
2021/12/14 08:18:43;;;;;;;52.03;25.07;;;8.80;99.90;;;;;;5091494;28;20235;-78
2021/12/14 08:21:17;;;;;;;48.10;24.30;;;8.80;99.90;;;;;;5098609;28;20210;-78
2021/12/14 08:23:54;;;;;;;50.90;25.00;;;8.90;99.90;;;;;;5093791;28;20255;-78
2021/12/14 08:26:21;;;;;;;53.43;25.57;;;8.90;99.90;;;;;;5092905;28;20742;-80
2021/12/14 08:29:14;;;;;;;50.30;25.10;;;8.90;99.90;;;;;;5093245;28;20211;-78
2021/12/14 08:31:51;;;;;;;51.93;24.20;;;8.80;99.90;;;;;;5090684;28;20244;-78
2021/12/14 08:34:22;;;;;;;49.43;24.27;;;8.80;99.90;;;;;;5093785;28;20313;-79
2021/12/14 08:37:17;;;;;;;50.40;23.47;;;8.90;99.90;;;;;;5092559;28;20562;-79
2021/12/14 08:40:02;;;;;;;50.50;23.70;;;8.90;99.90;;;;;;5070225;28;20240;-79
2021/12/14 08:42:48;;;;;;;46.50;23.37;;;9.00;99.90;;;;;;5092400;28;20221;-79
2021/12/14 08:45:26;;;;;;;52.13;25.13;;;9.00;99.90;;;;;;5091481;28;20455;-79
2021/12/14 08:47:56;;;;;;;51.23;24.77;;;9.10;99.90;;;;;;5091484;28;20222;-79
2021/12/14 08:50:23;;;;;;;49.47;23.40;;;9.10;99.90;;;;;;5091433;28;20653;-78
2021/12/14 08:52:51;;;;;;;50.10;23.93;;;9.20;99.90;;;;;;5084956;28;20239;-79
2021/12/14 08:55:23;;;;;;;49.30;23.97;;;9.20;99.90;;;;;;5092406;28;20309;-80
2021/12/14 08:57:50;;;;;;;50.23;24.50;;;9.30;99.90;;;;;;5091939;28;20296;-80
2021/12/14 09:00:27;;;;;;;49.57;24.63;;;9.30;99.90;;;;;;5084565;28;20242;-78
2021/12/14 09:02:59;;;;;;;47.67;24.30;;;9.40;99.90;;;;;;5089403;28;20355;-80
2021/12/14 09:05:33;;;;;;;47.67;23.63;;;9.40;99.90;;;;;;5091827;28;20200;-80
2021/12/14 09:08:01;;;;;;;48.13;23.13;;;9.40;99.90;;;;;;5082470;28;20285;-79
2021/12/14 09:10:34;;;;;;;51.53;24.53;;;9.40;99.90;;;;;;5073900;28;20637;-79
2021/12/14 09:13:06;;;;;;;51.37;24.47;;;9.40;99.90;;;;;;5092676;28;20230;-80
2021/12/14 09:15:42;;;;;;;48.60;24.13;;;9.40;99.90;;;;;;5089668;28;20239;-80
2021/12/14 09:18:10;;;;;;;50.00;23.20;;;9.40;99.90;;;;;;5073501;28;20783;-79
2021/12/14 09:20:45;;;;;;;48.40;24.50;;;9.40;99.90;;;;;;5091541;28;20211;-78
2021/12/14 09:23:36;;;;;;;52.43;24.53;;;9.40;99.90;;;;;;5091255;28;20667;-79
2021/12/14 09:26:07;;;;;;;51.03;24.50;;;9.50;99.90;;;;;;5090833;28;20208;-80
2021/12/14 09:28:35;;;;;;;52.30;26.03;;;9.50;99.90;;;;;;5074625;28;20232;-81
2021/12/14 09:31:08;;;;;;;55.70;26.67;;;9.40;99.90;;;;;;5079029;28;20201;-80
2021/12/14 09:33:38;;;;;;;49.93;25.53;;;9.40;99.90;;;;;;5073661;28;20276;-79
2021/12/14 09:36:12;;;;;;;48.60;24.63;;;9.50;99.90;;;;;;5097734;28;20700;-80
2021/12/14 09:38:46;;;;;;;48.47;25.20;;;9.50;99.90;;;;;;5073905;28;20228;-78
2021/12/14 09:41:18;;;;;;;51.57;25.70;;;9.40;99.90;;;;;;5090964;28;20204;-80
2021/12/14 09:43:47;;;;;;;52.20;25.43;;;9.40;99.90;;;;;;5089571;28;20203;-79
2021/12/14 09:46:16;;;;;;;54.40;25.80;;;9.40;99.90;;;;;;5064306;28;20230;-80
2021/12/14 09:48:53;;;;;;;51.03;25.23;;;9.50;99.90;;;;;;5090378;28;20228;-78
2021/12/14 09:51:36;;;;;;;61.40;26.63;;;9.50;99.90;;;;;;5090749;28;20239;-80
2021/12/14 09:54:08;;;;;;;53.50;26.10;;;9.70;99.90;;;;;;5073236;28;20614;-78
2021/12/14 09:56:38;;;;;;;55.27;25.83;;;9.50;99.90;;;;;;5090403;28;20255;-79
2021/12/14 09:59:07;;;;;;;56.70;26.57;;;9.50;99.90;;;;;;5073038;28;20227;-80
2021/12/14 10:01:44;;;;;;;52.37;24.93;;;9.60;99.90;;;;;;5090160;28;20294;-79
2021/12/14 10:04:25;;;;;;;55.23;26.73;;;9.60;99.90;;;;;;5088036;28;20245;-80
2021/12/14 10:06:53;;;;;;;55.70;26.43;;;9.70;99.90;;;;;;5072962;28;20293;-79
2021/12/14 10:09:25;;;;;;;50.47;25.90;;;9.70;99.90;;;;;;5091199;28;20204;-80
2021/12/14 10:14:38;;;;;;;55.13;27.40;;;9.80;99.90;;;;;;5090824;28;20719;-79
2021/12/14 10:17:08;;;;;;;50.43;24.50;;;9.80;99.90;;;;;;5088992;28;20740;-80
2021/12/14 10:19:36;;;;;;;59.60;27.53;;;9.80;99.90;;;;;;5084023;28;20317;-78
2021/12/14 10:22:09;;;;;;;52.87;25.47;;;9.80;99.90;;;;;;5072372;28;20618;-79
2021/12/14 10:24:36;;;;;;;56.73;26.83;;;9.90;99.90;;;;;;5091057;28;20203;-80
2021/12/14 10:27:16;;;;;;;55.60;26.33;;;10.10;99.90;;;;;;5089914;28;20253;-79
2021/12/14 10:29:44;;;;;;;56.77;26.43;;;10.10;99.90;;;;;;5088293;28;20212;-79
2021/12/14 10:32:20;;;;;;;54.00;26.23;;;10.10;99.90;;;;;;5077835;28;20257;-79
2021/12/14 10:34:52;;;;;;;53.80;26.37;;;10.20;99.90;;;;;;5069848;28;20316;-80
2021/12/14 10:37:51;;;;;;;57.07;27.53;;;10.20;99.90;;;;;;5086092;28;20207;-80
2021/12/14 10:43:15;;;;;;;54.87;25.70;;;10.30;99.90;;;;;;5069566;28;20666;-80
2021/12/14 10:45:50;;;;;;;60.57;29.00;;;10.40;99.90;;;;;;5071228;28;20208;-80
2021/12/14 10:48:20;;;;;;;59.13;27.30;;;10.40;99.90;;;;;;5070257;28;20776;-78
2021/12/14 10:50:50;;;;;;;55.90;26.67;;;10.30;99.90;;;;;;5089908;28;20539;-79
2021/12/14 10:53:19;;;;;;;63.27;28.37;;;10.30;99.90;;;;;;5089154;28;20511;-79
2021/12/14 10:55:56;;;;;;;58.57;28.77;;;10.20;99.90;;;;;;5089568;28;20227;-80
2021/12/14 10:58:27;;;;;;;61.00;27.20;;;10.30;99.90;;;;;;5071540;28;20221;-80
2021/12/14 11:00:58;;;;;;;57.07;27.83;;;10.30;99.90;;;;;;5071155;28;20208;-78
2021/12/14 11:03:29;;;;;;;57.07;27.30;;;10.30;99.90;;;;;;5089175;28;20250;-79
2021/12/14 11:06:03;;;;;;;60.13;27.97;;;10.30;99.90;;;;;;5089501;28;20316;-80
2021/12/14 11:08:41;;;;;;;58.93;28.43;;;10.30;99.90;;;;;;5089767;28;20231;-78
2021/12/14 11:11:18;;;;;;;58.63;26.87;;;10.20;99.90;;;;;;5090095;28;20560;-79
2021/12/14 11:13:55;;;;;;;58.50;27.60;;;10.20;99.90;;;;;;5090437;28;20229;-81
2021/12/14 11:18:08;;;;;;;62.27;28.80;;;10.20;99.90;;;;;;5089354;28;20246;-78
2021/12/14 11:19:31;;;;;;;67.10;31.10;;;10.10;99.90;;;;;;5088376;28;20232;-80
2021/12/14 11:22:13;;;;;;;70.33;29.13;;;10.10;99.90;;;;;;5089587;28;20249;-82
2021/12/14 11:24:43;;;;;;;66.40;29.53;;;10.00;99.90;;;;;;5090219;28;20262;-79
2021/12/14 11:27:17;;;;;;;69.90;30.80;;;10.00;99.90;;;;;;5088799;28;20200;-80
2021/12/14 11:29:45;;;;;;;71.93;31.53;;;10.00;99.90;;;;;;5075383;28;20870;-79
2021/12/14 11:32:19;;;;;;;76.23;31.67;;;10.00;99.90;;;;;;5089504;28;20720;-78
2021/12/14 11:34:47;;;;;;;78.80;31.80;;;9.90;99.90;;;;;;5089718;28;20333;-78
2021/12/14 11:37:22;;;;;;;81.23;32.20;;;9.90;99.90;;;;;;5088460;28;20231;-79
2021/12/14 11:39:52;;;;;;;77.90;30.70;;;9.80;99.90;;;;;;5088574;28;20695;-79
2021/12/14 11:42:18;;;;;;;82.43;32.40;;;9.80;99.90;;;;;;5089543;28;20203;-79
2021/12/14 11:44:51;;;;;;;79.40;32.70;;;9.90;99.90;;;;;;5089131;28;20225;-78
2021/12/14 11:50:10;;;;;;;80.13;31.07;;;10.00;99.90;;;;;;5082511;28;20290;-78
2021/12/14 11:52:51;;;;;;;84.93;31.60;;;10.00;99.90;;;;;;5083555;28;20295;-79
2021/12/14 11:55:29;;;;;;;78.30;31.50;;;10.00;99.90;;;;;;5089061;28;20287;-79
2021/12/14 11:58:11;;;;;;;80.53;33.53;;;10.10;99.90;;;;;;5089478;28;20250;-79
2021/12/14 12:00:52;;;;;;;78.60;32.50;;;10.10;99.90;;;;;;5088438;28;20224;-79
2021/12/14 12:03:19;;;;;;;78.70;32.80;;;10.10;99.90;;;;;;5089096;28;20252;-79
2021/12/14 12:06:06;;;;;;;80.27;31.40;;;10.20;99.90;;;;;;5090071;28;20622;-78
2021/12/14 12:11:42;;;;;;;76.13;33.33;;;10.20;99.90;;;;;;5009902;28;20221;-78
2021/12/14 12:14:20;;;;;;;73.53;31.83;;;10.20;99.90;;;;;;5077022;28;20682;-78
2021/12/14 12:16:47;;;;;;;69.93;30.63;;;10.20;99.90;;;;;;5087650;28;20207;-80
2021/12/14 12:19:19;;;;;;;80.00;31.83;;;10.20;99.90;;;;;;5092059;28;20322;-80
2021/12/14 12:21:48;;;;;;;72.80;31.00;;;10.30;99.90;;;;;;5091966;28;20734;-79
2021/12/14 12:24:49;;;;;;;74.77;29.33;;;10.30;99.90;;;;;;5092275;28;20212;-78
2021/12/14 12:27:24;;;;;;;71.83;30.27;;;10.40;99.90;;;;;;5036802;28;20203;-79
2021/12/14 12:30:09;;;;;;;72.90;31.83;;;10.20;99.90;;;;;;5089573;28;20318;-79
2021/12/14 12:32:36;;;;;;;71.43;30.60;;;10.20;99.90;;;;;;5081824;28;20650;-79
2021/12/14 12:35:26;;;;;;;85.13;32.40;;;10.20;99.90;;;;;;5074111;28;20640;-79
2021/12/14 12:37:55;;;;;;;72.83;30.67;;;10.30;99.90;;;;;;5091922;28;20198;-79
2021/12/14 12:40:47;;;;;;;68.47;30.23;;;10.40;99.90;;;;;;5092265;28;20711;-79
2021/12/14 12:43:28;;;;;;;73.60;33.23;;;10.50;99.90;;;;;;5091544;28;20215;-79
2021/12/14 12:46:03;;;;;;;73.97;32.90;;;10.40;99.90;;;;;;5091567;28;20208;-80
2021/12/14 12:48:47;;;;;;;76.47;32.57;;;10.40;99.90;;;;;;5089353;28;20356;-80
2021/12/14 12:51:35;;;;;;;80.63;32.47;;;10.30;99.90;;;;;;5087588;28;20310;-79
2021/12/14 12:54:18;;;;;;;74.87;32.03;;;10.30;99.90;;;;;;5095201;28;20256;-80
2021/12/14 12:56:51;;;;;;;74.43;31.97;;;10.30;99.90;;;;;;5094005;28;20223;-80
2021/12/14 12:59:37;;;;;;;73.57;32.17;;;10.30;99.90;;;;;;5093233;28;20251;-80
2021/12/14 13:02:19;;;;;;;69.23;31.67;;;10.30;99.90;;;;;;5093959;28;20692;-80
2021/12/14 13:04:51;;;;;;;73.50;32.53;;;10.20;99.90;;;;;;5092698;28;20206;-80
2021/12/14 13:07:26;;;;;;;72.67;31.13;;;10.20;99.90;;;;;;5091654;28;20295;-80
2021/12/14 13:10:10;;;;;;;78.83;33.03;;;10.20;99.90;;;;;;5091762;28;20281;-80
2021/12/14 13:13:00;;;;;;;72.17;31.20;;;10.20;99.90;;;;;;5091565;28;20269;-79
2021/12/14 13:15:37;;;;;;;73.97;31.70;;;10.20;99.90;;;;;;5073737;28;20274;-79
2021/12/14 13:18:29;;;;;;;76.03;31.80;;;10.20;99.90;;;;;;5085458;28;20224;-79
2021/12/14 13:21:02;;;;;;;68.17;29.40;;;10.20;99.90;;;;;;5087029;28;20228;-80
2021/12/14 13:23:38;;;;;;;76.83;32.80;;;10.20;99.90;;;;;;5077845;28;20652;-79
2021/12/14 13:26:18;;;;;;;73.43;33.10;;;10.10;99.90;;;;;;5096038;28;20263;-79
2021/12/14 13:28:48;;;;;;;72.20;29.87;;;10.10;99.90;;;;;;5097734;28;20204;-78
2021/12/14 13:31:36;;;;;;;72.37;32.50;;;10.10;99.90;;;;;;5085321;28;20226;-80
2021/12/14 13:34:07;;;;;;;78.77;32.63;;;10.10;99.90;;;;;;5084875;28;20204;-79
2021/12/14 13:36:35;;;;;;;72.27;30.13;;;10.20;99.90;;;;;;5087827;28;20208;-82
2021/12/14 13:39:06;;;;;;;70.67;30.17;;;10.20;99.90;;;;;;5086127;28;20231;-79
2021/12/14 13:41:57;;;;;;;61.50;28.23;;;10.30;99.90;;;;;;5100092;28;20273;-81
2021/12/14 13:44:41;;;;;;;64.53;27.33;;;10.30;99.90;;;;;;5076728;28;20204;-79
2021/12/14 13:47:12;;;;;;;61.40;27.40;;;10.30;99.90;;;;;;5075860;28;20220;-80